createdAt,value
2018-03-30T00:02:10.042Z,83.26
2018-03-30T00:04:37.489Z,83.10
2018-03-30T00:07:07.801Z,83.38
2018-03-30T00:09:47.179Z,83.89
2018-03-30T00:12:14.818Z,83.61
2018-03-30T00:14:42.285Z,83.55
2018-03-30T00:17:09.729Z,83.98
2018-03-30T00:19:37.278Z,84.00
2018-03-30T00:22:04.738Z,83.79
2018-03-30T00:24:32.185Z,83.70
2018-03-30T00:26:59.665Z,83.85
2018-03-30T00:29:27.117Z,83.72
2018-03-30T00:31:54.569Z,83.99
2018-03-30T00:34:22.349Z,84.21
2018-03-30T00:36:49.781Z,84.33
2018-03-30T00:39:17.217Z,84.20
2018-03-30T00:41:44.905Z,84.14
2018-03-30T00:44:12.391Z,84.27
2018-03-30T00:46:39.859Z,84.33
2018-03-30T00:49:07.353Z,84.10
2018-03-30T00:51:34.794Z,84.62
2018-03-30T00:54:02.254Z,85.84
2018-03-30T00:56:29.717Z,85.43
2018-03-30T00:58:57.159Z,85.21
2018-03-30T01:01:24.617Z,85.08
2018-03-30T01:03:52.197Z,85.13
2018-03-30T01:06:19.640Z,84.85
2018-03-30T01:08:47.094Z,84.31
2018-03-30T01:11:14.801Z,84.40
2018-03-30T01:13:42.241Z,85.14
2018-03-30T01:16:09.883Z,84.46
2018-03-30T01:18:37.371Z,84.83
2018-03-30T01:21:04.818Z,85.06
2018-03-30T01:23:32.257Z,85.50
2018-03-30T01:25:59.733Z,85.91
2018-03-30T01:28:27.172Z,85.57
2018-03-30T01:30:54.613Z,85.59
2018-03-30T01:33:22.253Z,85.33
2018-03-30T01:35:49.688Z,85.96
2018-03-30T01:38:17.129Z,85.85
2018-03-30T01:40:44.752Z,85.88
2018-03-30T01:43:12.221Z,86.12
2018-03-30T01:45:39.681Z,86.16
2018-03-30T01:48:07.467Z,85.37
2018-03-30T01:50:34.906Z,85.44
2018-03-30T01:53:02.343Z,85.48
2018-03-30T01:55:29.906Z,87.67
2018-03-30T01:57:57.341Z,86.10
2018-03-30T02:00:24.777Z,86.25
2018-03-30T02:02:52.400Z,84.63
2018-03-30T02:05:19.849Z,84.83
2018-03-30T02:07:47.286Z,84.69
2018-03-30T02:10:14.997Z,85.60
2018-03-30T02:12:42.433Z,85.22
2018-03-30T02:15:09.883Z,85.52
2018-03-30T02:17:37.353Z,85.40
2018-03-30T02:20:04.802Z,85.54
2018-03-30T02:22:32.241Z,85.48
2018-03-30T02:24:59.805Z,85.44
2018-03-30T02:27:27.281Z,84.85
2018-03-30T02:29:54.717Z,85.63
2018-03-30T02:32:22.177Z,85.77
2018-03-30T02:34:49.622Z,86.12
2018-03-30T02:37:17.261Z,85.68
2018-03-30T02:39:44.699Z,85.85
2018-03-30T02:42:12.134Z,85.93
2018-03-30T02:44:39.642Z,86.17
2018-03-30T02:47:07.096Z,86.40
2018-03-30T02:49:34.951Z,86.17
2018-03-30T02:52:02.394Z,86.13
2018-03-30T02:54:29.843Z,86.01
2018-03-30T02:56:57.311Z,85.87
2018-03-30T02:59:24.758Z,86.25
2018-03-30T03:01:52.244Z,86.25
2018-03-30T03:04:19.689Z,85.13
2018-03-30T03:06:47.142Z,85.41
2018-03-30T03:09:14.627Z,86.22
2018-03-30T03:11:42.082Z,86.57
2018-03-30T03:14:09.657Z,86.79
2018-03-30T03:16:37.121Z,86.50
2018-03-30T03:19:04.621Z,86.73
2018-03-30T03:21:32.074Z,87.92
2018-03-30T03:23:59.513Z,88.71
2018-03-30T03:26:26.973Z,90.20
2018-03-30T03:28:54.425Z,90.44
2018-03-30T03:31:21.866Z,89.84
2018-03-30T03:33:49.346Z,88.46
2018-03-30T03:36:16.781Z,87.97
2018-03-30T03:38:44.420Z,87.68
2018-03-30T03:41:11.949Z,86.63
2018-03-30T03:43:39.349Z,87.55
2018-03-30T03:46:06.809Z,87.69
2018-03-30T03:48:34.270Z,87.01
2018-03-30T03:51:01.864Z,86.98
2018-03-30T03:53:29.313Z,87.05
2018-03-30T03:55:56.862Z,87.84
2018-03-30T03:58:24.322Z,87.18
2018-03-30T04:00:51.801Z,87.25
2018-03-30T04:03:19.405Z,85.71
2018-03-30T04:05:46.842Z,85.96
2018-03-30T04:08:14.273Z,86.20
2018-03-30T04:10:41.733Z,86.31
2018-03-30T04:13:09.205Z,86.84
2018-03-30T04:15:36.862Z,88.04
2018-03-30T04:18:04.298Z,88.12
2018-03-30T04:20:31.737Z,86.73
2018-03-30T04:22:59.204Z,87.15
2018-03-30T04:25:26.649Z,87.36
2018-03-30T04:27:54.121Z,87.76
2018-03-30T04:30:21.562Z,87.07
2018-03-30T04:32:49.020Z,87.19
2018-03-30T04:35:16.493Z,87.38
2018-03-30T04:37:43.936Z,85.28
2018-03-30T04:40:11.425Z,86.74
2018-03-30T04:42:38.861Z,87.09
2018-03-30T04:45:06.314Z,86.74
2018-03-30T04:47:33.767Z,86.76
2018-03-30T04:50:01.259Z,87.13
2018-03-30T04:52:28.802Z,87.61
2018-03-30T04:54:56.333Z,87.29
2018-03-30T04:57:23.772Z,87.41
2018-03-30T04:59:51.294Z,87.71
2018-03-30T05:02:18.765Z,88.07
2018-03-30T05:04:46.350Z,87.16
2018-03-30T05:07:13.787Z,86.94
2018-03-30T05:09:41.245Z,86.79
2018-03-30T05:12:08.818Z,87.57
2018-03-30T05:14:36.266Z,87.78
2018-03-30T05:17:03.967Z,87.73
2018-03-30T05:19:31.418Z,87.18
2018-03-30T05:21:58.879Z,87.11
2018-03-30T05:24:26.383Z,87.26
2018-03-30T05:26:53.817Z,87.50
2018-03-30T05:29:21.461Z,88.67
2018-03-30T05:31:48.909Z,88.00
2018-03-30T05:34:16.349Z,88.04
2018-03-30T05:36:43.811Z,89.37
2018-03-30T05:39:11.261Z,89.38
2018-03-30T05:41:38.875Z,89.88
2018-03-30T05:44:06.385Z,89.67
2018-03-30T05:46:33.831Z,88.34
2018-03-30T05:49:01.290Z,87.52
2018-03-30T05:51:28.725Z,87.47
2018-03-30T05:53:56.335Z,87.17
2018-03-30T05:56:23.778Z,87.49
2018-03-30T05:58:51.217Z,87.44
2018-03-30T06:01:18.676Z,87.24
2018-03-30T06:03:46.117Z,87.13
2018-03-30T06:06:13.816Z,87.30
2018-03-30T06:08:41.261Z,86.83
2018-03-30T06:11:08.701Z,86.87
2018-03-30T06:13:36.174Z,87.03
2018-03-30T06:16:03.641Z,86.75
2018-03-30T06:18:31.118Z,86.46
2018-03-30T06:20:58.550Z,87.14
2018-03-30T06:23:25.989Z,86.35
2018-03-30T06:25:53.477Z,86.43
2018-03-30T06:28:20.926Z,86.51
2018-03-30T06:30:48.405Z,85.99
2018-03-30T06:33:15.869Z,86.17
2018-03-30T06:35:43.313Z,85.66
2018-03-30T06:38:10.782Z,86.00
2018-03-30T06:40:38.241Z,86.51
2018-03-30T06:43:06.061Z,87.35
2018-03-30T06:45:33.505Z,87.29
2018-03-30T06:48:00.950Z,86.78
2018-03-30T06:50:28.466Z,86.55
2018-03-30T06:52:55.922Z,86.36
2018-03-30T06:55:23.404Z,85.80
2018-03-30T06:57:50.883Z,85.13
2018-03-30T07:00:18.359Z,84.67
2018-03-30T07:02:45.825Z,83.31
2018-03-30T07:05:13.290Z,83.91
2018-03-30T07:07:40.765Z,84.57
2018-03-30T07:10:08.212Z,83.49
2018-03-30T07:12:35.666Z,84.43
2018-03-30T07:15:03.130Z,84.42
2018-03-30T07:17:30.569Z,84.47
2018-03-30T07:19:58.311Z,83.10
2018-03-30T07:22:25.745Z,82.69
2018-03-30T07:24:53.202Z,82.99
2018-03-30T07:27:20.705Z,83.99
2018-03-30T07:29:48.145Z,82.27
2018-03-30T07:32:15.750Z,80.28
2018-03-30T07:34:43.226Z,80.81
2018-03-30T07:37:10.669Z,81.53
2018-03-30T07:39:38.157Z,81.60
2018-03-30T07:42:05.597Z,81.32
2018-03-30T07:44:33.203Z,81.40
2018-03-30T07:47:00.654Z,81.17
2018-03-30T07:49:28.093Z,80.51
2018-03-30T07:51:55.561Z,77.87
2018-03-30T07:54:23.006Z,78.78
2018-03-30T07:56:50.475Z,79.08
2018-03-30T07:59:17.919Z,79.57
2018-03-30T08:01:45.385Z,79.23
2018-03-30T08:04:12.864Z,78.60
2018-03-30T08:06:40.310Z,77.13
2018-03-30T08:09:08.046Z,76.90
2018-03-30T08:11:35.522Z,76.69
2018-03-30T08:14:02.973Z,76.37
2018-03-30T08:16:30.435Z,76.21
2018-03-30T08:18:57.901Z,75.73
2018-03-30T08:21:25.385Z,75.93
2018-03-30T08:23:52.839Z,75.51
2018-03-30T08:26:20.285Z,75.06
2018-03-30T08:28:47.758Z,75.44
2018-03-30T08:31:15.217Z,73.96
2018-03-30T08:33:42.697Z,73.43
2018-03-30T08:36:10.134Z,71.60
2018-03-30T08:38:37.577Z,72.75
2018-03-30T08:41:05.047Z,72.64
2018-03-30T08:43:32.503Z,71.60
2018-03-30T08:46:00.016Z,71.58
2018-03-30T08:48:27.470Z,71.87
2018-03-30T08:50:54.926Z,71.15
2018-03-30T08:53:22.389Z,71.53
2018-03-30T08:55:49.831Z,72.52
2018-03-30T08:58:17.386Z,72.03
2018-03-30T09:00:44.829Z,72.11
2018-03-30T09:03:12.293Z,71.44
2018-03-30T09:05:39.761Z,71.06
2018-03-30T09:08:07.201Z,71.03
2018-03-30T09:10:34.845Z,70.47
2018-03-30T09:13:02.298Z,69.64
2018-03-30T09:15:29.734Z,70.02
2018-03-30T09:17:57.212Z,69.13
2018-03-30T09:20:24.695Z,69.14
2018-03-30T09:22:52.278Z,68.44
2018-03-30T09:25:19.717Z,67.31
2018-03-30T09:27:47.157Z,67.75
2018-03-30T09:30:14.621Z,67.28
2018-03-30T09:32:42.071Z,66.41
2018-03-30T09:35:09.547Z,65.88
2018-03-30T09:37:36.991Z,67.21
2018-03-30T09:40:04.618Z,66.83
2018-03-30T09:42:32.202Z,66.91
2018-03-30T09:44:59.649Z,66.77
2018-03-30T09:47:27.453Z,67.13
2018-03-30T09:49:54.895Z,68.33
2018-03-30T09:52:22.549Z,68.32
2018-03-30T09:54:50.001Z,67.27
2018-03-30T09:57:17.445Z,65.25
2018-03-30T09:59:44.929Z,66.25
2018-03-30T10:02:12.422Z,65.37
2018-03-30T10:04:45.101Z,66.17
2018-03-30T10:07:12.541Z,65.88
2018-03-30T10:09:39.998Z,65.72
2018-03-30T10:12:07.463Z,65.58
2018-03-30T10:14:34.905Z,65.62
2018-03-30T10:17:02.554Z,65.65
2018-03-30T10:19:30.015Z,66.16
2018-03-30T10:21:57.465Z,66.02
2018-03-30T10:24:24.953Z,66.29
2018-03-30T10:26:52.393Z,66.53
2018-03-30T10:29:19.861Z,66.75
2018-03-30T10:31:47.306Z,66.07
2018-03-30T10:34:14.749Z,66.50
2018-03-30T10:36:42.210Z,66.19
2018-03-30T10:39:09.672Z,66.15
2018-03-30T10:41:37.453Z,66.11
2018-03-30T10:44:04.898Z,65.28
2018-03-30T10:46:32.358Z,63.06
2018-03-30T10:48:59.821Z,62.60
2018-03-30T10:51:27.282Z,62.91
2018-03-30T10:53:55.009Z,62.49
2018-03-30T10:56:22.454Z,61.65
2018-03-30T10:58:49.904Z,62.68
2018-03-30T11:01:17.377Z,62.06
2018-03-30T11:03:44.825Z,61.29
2018-03-30T11:06:12.453Z,61.65
2018-03-30T11:08:39.918Z,60.79
2018-03-30T11:11:07.440Z,61.86
2018-03-30T11:13:34.922Z,61.58
2018-03-30T11:16:02.362Z,61.40
2018-03-30T11:18:29.988Z,60.85
2018-03-30T11:20:57.438Z,60.74
2018-03-30T11:23:24.877Z,59.90
2018-03-30T11:25:52.354Z,59.29
2018-03-30T11:28:19.805Z,59.49
2018-03-30T11:30:47.274Z,59.84
2018-03-30T11:33:14.722Z,60.24
2018-03-30T11:35:42.173Z,59.88
2018-03-30T11:38:09.636Z,59.34
2018-03-30T11:40:37.082Z,60.06
2018-03-30T11:43:04.553Z,59.31
2018-03-30T11:45:32.025Z,59.24
2018-03-30T11:47:59.481Z,57.89
2018-03-30T11:50:26.984Z,57.27
2018-03-30T11:52:54.434Z,57.94
2018-03-30T11:55:22.103Z,58.52
2018-03-30T11:57:49.561Z,58.15
2018-03-30T12:00:17.003Z,56.86
2018-03-30T12:02:44.467Z,57.06
2018-03-30T12:05:11.913Z,57.36
2018-03-30T12:07:39.597Z,57.62
2018-03-30T12:10:07.095Z,57.72
2018-03-30T12:12:34.551Z,57.40
2018-03-30T12:15:02.018Z,56.71
2018-03-30T12:17:29.466Z,57.94
2018-03-30T12:19:56.948Z,57.16
2018-03-30T12:22:25.204Z,57.00
2018-03-30T12:24:52.645Z,57.27
2018-03-30T12:27:20.133Z,57.25
2018-03-30T12:29:47.591Z,56.43
2018-03-30T12:32:15.074Z,56.32
2018-03-30T12:34:42.517Z,56.19
2018-03-30T12:37:09.973Z,55.40
2018-03-30T12:39:37.477Z,55.48
2018-03-30T12:42:05.076Z,55.81
2018-03-30T12:44:32.554Z,54.85
2018-03-30T12:46:59.998Z,55.10
2018-03-30T12:49:27.441Z,55.27
2018-03-30T12:51:54.912Z,55.14
2018-03-30T12:54:22.392Z,55.14
2018-03-30T12:56:50.008Z,55.30
2018-03-30T12:59:17.453Z,55.45
2018-03-30T13:01:44.961Z,55.31
2018-03-30T13:04:12.498Z,55.13
2018-03-30T13:06:39.942Z,55.03
2018-03-30T13:09:07.514Z,55.07
2018-03-30T13:11:34.958Z,55.21
2018-03-30T13:14:02.403Z,56.12
2018-03-30T13:16:29.878Z,53.80
2018-03-30T13:18:57.316Z,53.60
2018-03-30T13:21:24.901Z,53.46
2018-03-30T13:23:52.372Z,54.23
2018-03-30T13:26:19.831Z,54.98
2018-03-30T13:28:47.308Z,56.29
2018-03-30T13:31:14.753Z,56.48
2018-03-30T13:33:42.237Z,56.40
2018-03-30T13:36:09.681Z,56.56
2018-03-30T13:38:37.173Z,57.60
2018-03-30T13:41:04.638Z,57.69
2018-03-30T13:43:32.402Z,55.34
2018-03-30T13:46:00.224Z,56.78
2018-03-30T13:48:27.663Z,56.49
2018-03-30T13:50:58.850Z,57.41
2018-03-30T13:53:44.045Z,57.40
2018-03-30T13:56:14.305Z,57.09
2018-03-30T13:58:44.186Z,55.69
2018-03-30T14:01:12.614Z,55.99
2018-03-30T14:03:42.033Z,55.95
2018-03-30T14:06:20.084Z,54.52
2018-03-30T14:08:52.397Z,54.28
2018-03-30T14:11:25.434Z,54.64
2018-03-30T14:13:52.902Z,55.42
2018-03-30T14:16:25.780Z,56.10
2018-03-30T14:19:00.719Z,57.26
2018-03-30T14:24:28.438Z,58.80
2018-03-30T14:27:13.455Z,59.48
2018-03-30T14:29:41.722Z,61.46
2018-03-30T14:32:29.029Z,62.86
2018-03-30T14:34:58.148Z,64.48
2018-03-30T14:37:27.444Z,63.72
2018-03-30T14:39:58.968Z,66.51
2018-03-30T14:42:32.891Z,65.39
2018-03-30T14:45:07.169Z,65.49
2018-03-30T14:47:36.434Z,64.80
2018-03-30T14:50:06.450Z,65.23
2018-03-30T14:52:44.674Z,68.36
2018-03-30T14:58:29.010Z,68.83
2018-03-30T15:01:01.427Z,67.91
2018-03-30T15:03:31.650Z,69.28
2018-03-30T15:06:08.896Z,68.44
2018-03-30T15:08:53.987Z,70.51
2018-03-30T15:14:19.354Z,73.19
2018-03-30T15:17:06.738Z,73.22
2018-03-30T15:19:35.913Z,73.73
2018-03-30T15:22:25.651Z,73.15
2018-03-30T15:24:56.819Z,71.57
2018-03-30T15:27:33.474Z,71.31
2018-03-30T15:30:05.320Z,72.10
2018-03-30T15:32:40.384Z,74.52
2018-03-30T15:35:13.337Z,73.51
2018-03-30T15:37:40.862Z,74.72
2018-03-30T15:40:20.034Z,73.91
2018-03-30T15:42:52.389Z,72.55
2018-03-30T15:45:21.565Z,73.46
2018-03-30T15:47:49.006Z,72.93
2018-03-30T15:50:16.484Z,73.97
2018-03-30T15:52:43.937Z,73.37
2018-03-30T15:55:11.915Z,73.22
2018-03-30T15:57:39.375Z,73.36
2018-03-30T16:00:08.405Z,73.07
2018-03-30T16:02:35.867Z,74.04
2018-03-30T16:05:03.323Z,72.80
2018-03-30T16:07:30.981Z,73.67
2018-03-30T16:10:09.913Z,74.57
2018-03-30T16:12:37.402Z,73.93
2018-03-30T16:15:04.842Z,75.38
2018-03-30T16:17:32.294Z,75.55
2018-03-30T16:19:59.264Z,75.62
2018-03-30T16:22:26.173Z,76.00
2018-03-30T16:24:53.145Z,74.98
2018-03-30T16:27:20.057Z,73.09
2018-03-30T16:29:46.978Z,73.87
2018-03-30T16:32:13.906Z,75.15
2018-03-30T16:34:41.353Z,76.30
2018-03-30T16:37:08.416Z,73.36
2018-03-30T16:39:35.330Z,74.71
2018-03-30T16:42:02.239Z,76.05
2018-03-30T16:44:29.170Z,76.65
2018-03-30T16:46:56.105Z,76.79
2018-03-30T16:49:23.187Z,76.58
2018-03-30T16:51:50.094Z,77.52
2018-03-30T16:54:17.022Z,75.54
2018-03-30T16:56:43.975Z,74.63
2018-03-30T16:59:10.924Z,75.60
2018-03-30T17:01:37.974Z,75.67
2018-03-30T17:04:04.895Z,75.75
2018-03-30T17:06:31.801Z,76.46
2018-03-30T17:08:58.721Z,77.46
2018-03-30T17:11:25.626Z,77.08
2018-03-30T17:13:52.673Z,76.15
2018-03-30T17:16:19.580Z,78.33
2018-03-30T17:18:46.489Z,78.76
2018-03-30T17:21:13.423Z,77.77
2018-03-30T17:23:40.330Z,80.50
2018-03-30T17:26:07.366Z,82.03
2018-03-30T17:28:34.275Z,81.71
2018-03-30T17:31:01.179Z,81.46
2018-03-30T17:33:28.123Z,82.35
2018-03-30T17:35:55.029Z,82.34
2018-03-30T17:38:22.150Z,82.41
2018-03-30T17:40:49.055Z,81.88
2018-03-30T17:43:15.969Z,82.25
2018-03-30T17:45:42.902Z,82.41
2018-03-30T17:48:09.825Z,82.18
2018-03-30T17:50:37.226Z,82.33
2018-03-30T17:53:04.146Z,81.82
2018-03-30T17:55:31.070Z,80.97
2018-03-30T17:57:57.997Z,81.01
2018-03-30T18:00:24.906Z,81.86
2018-03-30T18:02:51.981Z,82.90
2018-03-30T18:05:18.901Z,82.53
2018-03-30T18:07:45.821Z,82.81
2018-03-30T18:10:12.777Z,83.11
2018-03-30T18:12:39.712Z,82.67
2018-03-30T18:15:06.864Z,83.15
2018-03-30T18:17:33.780Z,83.10
2018-03-30T18:20:00.742Z,83.21
2018-03-30T18:22:27.686Z,83.45
2018-03-30T18:24:54.625Z,83.40
2018-03-30T18:27:21.713Z,83.00
2018-03-30T18:29:48.638Z,83.44
2018-03-30T18:32:15.578Z,83.36
2018-03-30T18:34:42.521Z,83.80
2018-03-30T18:37:09.524Z,84.33
2018-03-30T18:39:36.398Z,84.01
2018-03-30T18:42:03.353Z,83.94
2018-03-30T18:44:30.265Z,82.71
2018-03-30T18:46:57.193Z,83.79
2018-03-30T18:49:24.101Z,84.11
2018-03-30T18:51:51.298Z,84.96
2018-03-30T18:54:18.212Z,85.69
2018-03-30T18:56:45.770Z,85.67
2018-03-30T18:59:12.713Z,85.86
2018-03-30T19:01:39.622Z,85.73
2018-03-30T19:04:06.871Z,86.05
2018-03-30T19:06:33.845Z,86.16
2018-03-30T19:09:00.752Z,86.17
2018-03-30T19:11:27.686Z,86.61
2018-03-30T19:13:54.595Z,86.60
2018-03-30T19:16:21.885Z,86.10
2018-03-30T19:18:48.793Z,84.46
2018-03-30T19:21:15.714Z,84.37
2018-03-30T19:23:42.715Z,84.37
2018-03-30T19:26:09.653Z,83.62
2018-03-30T19:28:36.877Z,83.36
2018-03-30T19:31:03.816Z,83.28
2018-03-30T19:33:30.754Z,83.74
2018-03-30T19:35:58.906Z,83.40
2018-03-30T19:38:25.805Z,83.18
2018-03-30T19:40:52.934Z,82.84
2018-03-30T19:43:19.871Z,82.84
2018-03-30T19:45:46.806Z,82.76
2018-03-30T19:48:13.757Z,82.79
2018-03-30T19:50:40.700Z,82.76
2018-03-30T19:53:07.888Z,81.92
2018-03-30T19:55:34.806Z,81.66
2018-03-30T19:58:01.721Z,82.10
2018-03-30T20:00:28.710Z,81.14
2018-03-30T20:02:55.625Z,81.62
2018-03-30T20:05:22.881Z,81.24
2018-03-30T20:07:49.797Z,81.36
2018-03-30T20:10:16.705Z,81.31
2018-03-30T20:12:43.645Z,81.62
2018-03-30T20:15:10.565Z,81.07
2018-03-30T20:17:38.552Z,81.26
2018-03-30T20:20:05.490Z,81.50
2018-03-30T20:22:32.419Z,80.61
2018-03-30T20:24:59.354Z,81.36
2018-03-30T20:27:26.258Z,81.21
2018-03-30T20:29:53.575Z,80.54
2018-03-30T20:32:20.493Z,80.88
2018-03-30T20:34:47.443Z,80.85
2018-03-30T20:37:14.387Z,82.10
2018-03-30T20:39:41.320Z,82.36
2018-03-30T20:42:08.693Z,81.72
2018-03-30T20:44:35.603Z,82.62
2018-03-30T20:47:02.518Z,82.73
2018-03-30T20:49:29.450Z,82.24
2018-03-30T20:51:56.360Z,82.35
2018-03-30T20:54:23.380Z,82.25
2018-03-30T20:56:50.262Z,82.33
2018-03-30T20:59:17.174Z,82.49
2018-03-30T21:01:44.145Z,82.33
2018-03-30T21:04:11.060Z,83.02
2018-03-30T21:06:37.985Z,82.97
2018-03-30T21:09:04.890Z,82.55
2018-03-30T21:11:31.794Z,82.59
2018-03-30T21:13:58.738Z,83.61
2018-03-30T21:16:25.649Z,84.63
2018-03-30T21:18:52.596Z,85.05
2018-03-30T21:21:19.498Z,86.26
2018-03-30T21:23:46.405Z,86.71
2018-03-30T21:26:13.350Z,86.88
2018-03-30T21:28:40.253Z,86.21
2018-03-30T21:31:07.466Z,86.08
2018-03-30T21:33:34.375Z,84.37
2018-03-30T21:36:01.306Z,84.85
2018-03-30T21:38:28.229Z,84.49
2018-03-30T21:40:55.135Z,83.88
2018-03-30T21:43:22.209Z,83.10
2018-03-30T21:45:49.113Z,82.51
2018-03-30T21:48:16.018Z,82.80
2018-03-30T21:50:42.951Z,82.32
2018-03-30T21:53:09.885Z,82.90
2018-03-30T21:55:36.957Z,83.42
2018-03-30T21:58:03.861Z,83.86
2018-03-30T22:00:30.762Z,82.21
2018-03-30T22:02:57.710Z,82.52
2018-03-30T22:05:24.610Z,83.23
2018-03-30T22:07:51.777Z,83.39
2018-03-30T22:10:18.678Z,82.67
2018-03-30T22:12:45.578Z,83.10
2018-03-30T22:15:12.525Z,82.86
2018-03-30T22:17:39.457Z,82.90
2018-03-30T22:20:06.420Z,82.22
2018-03-30T22:22:33.321Z,82.58
2018-03-30T22:25:00.226Z,81.94
2018-03-30T22:27:27.146Z,82.49
2018-03-30T22:29:54.050Z,82.55
2018-03-30T22:32:21.149Z,83.59
2018-03-30T22:34:48.049Z,83.81
2018-03-30T22:37:14.957Z,84.26
2018-03-30T22:39:41.887Z,84.21
2018-03-30T22:42:08.812Z,83.88
2018-03-30T22:44:36.149Z,84.51
2018-03-30T22:47:03.053Z,85.28
2018-03-30T22:49:29.958Z,85.30
2018-03-30T22:51:56.877Z,85.77
2018-03-30T22:54:23.828Z,85.87
2018-03-30T22:56:50.757Z,85.83
2018-03-30T22:59:17.669Z,86.64
2018-03-30T23:01:44.572Z,86.94
2018-03-30T23:04:11.493Z,86.57
2018-03-30T23:06:38.397Z,87.58
2018-03-30T23:09:05.390Z,87.62
2018-03-30T23:11:32.305Z,87.12
2018-03-30T23:13:59.208Z,88.04
2018-03-30T23:16:26.137Z,87.81
2018-03-30T23:18:53.036Z,87.20
2018-03-30T23:21:20.213Z,87.96
2018-03-30T23:23:47.128Z,87.67
2018-03-30T23:26:14.030Z,88.12
2018-03-30T23:28:40.969Z,88.55
2018-03-30T23:31:07.881Z,88.73
2018-03-30T23:33:34.981Z,88.30
2018-03-30T23:36:01.886Z,88.52
2018-03-30T23:38:28.806Z,88.48
2018-03-30T23:40:55.750Z,88.21
2018-03-30T23:43:22.654Z,87.95
2018-03-30T23:45:49.773Z,87.06
2018-03-30T23:48:16.682Z,88.89
2018-03-30T23:50:43.578Z,89.08
2018-03-30T23:53:10.515Z,89.21
2018-03-30T23:55:37.438Z,89.38
2018-03-30T23:58:04.359Z,89.02
